createdAt,value
2023-02-19T00:01:48.712Z,99.24
2023-02-19T00:04:18.085Z,99.26
2023-02-19T00:06:49.636Z,99.37
2023-02-19T00:09:19.072Z,99.34
2023-02-19T00:11:46.424Z,99.24
2023-02-19T00:14:19.044Z,99.05
2023-02-19T00:16:46.134Z,99.00
2023-02-19T00:19:15.543Z,99.02
2023-02-19T00:21:42.741Z,99.01
2023-02-19T00:24:11.959Z,98.92
2023-02-19T00:26:40.033Z,98.98
2023-02-19T00:29:06.764Z,99.07
2023-02-19T00:31:35.183Z,99.12
2023-02-19T00:34:04.659Z,99.37
2023-02-19T00:36:33.046Z,99.34
2023-02-19T00:38:59.594Z,99.16
2023-02-19T00:41:27.636Z,99.04
2023-02-19T00:44:00.480Z,99.09
2023-02-19T00:46:32.490Z,99.34
2023-02-19T00:48:59.922Z,99.60
2023-02-19T00:51:29.671Z,99.32
2023-02-19T00:53:56.716Z,99.45
2023-02-19T00:56:23.720Z,99.46
2023-02-19T00:58:50.706Z,99.36
2023-02-19T01:01:18.175Z,98.71
2023-02-19T01:03:46.251Z,98.49
2023-02-19T01:06:15.112Z,98.37
2023-02-19T01:08:42.279Z,98.42
2023-02-19T01:11:10.177Z,98.35
2023-02-19T01:13:37.390Z,98.41
2023-02-19T01:16:21.446Z,98.35
2023-02-19T01:18:48.571Z,98.20
2023-02-19T01:21:18.371Z,98.19
2023-02-19T01:23:45.652Z,97.59
2023-02-19T01:26:15.314Z,97.25
2023-02-19T01:28:42.631Z,97.19
2023-02-19T01:31:13.999Z,97.18
2023-02-19T01:33:45.804Z,97.41
2023-02-19T01:36:13.101Z,97.41
2023-02-19T01:38:39.733Z,97.65
2023-02-19T01:41:08.067Z,97.72
2023-02-19T01:43:54.880Z,97.72
2023-02-19T01:46:21.579Z,97.64
2023-02-19T01:48:48.188Z,97.71
2023-02-19T01:51:18.174Z,97.54
2023-02-19T01:53:53.948Z,97.70
2023-02-19T01:56:21.591Z,97.68
2023-02-19T01:58:48.465Z,97.67
2023-02-19T02:01:15.101Z,97.56
2023-02-19T02:03:46.961Z,97.59
2023-02-19T02:06:27.769Z,97.71
2023-02-19T02:09:15.446Z,97.70
2023-02-19T02:11:51.127Z,97.75
2023-02-19T02:14:20.719Z,97.61
2023-02-19T02:17:11.218Z,97.55
2023-02-19T02:20:06.782Z,97.59
2023-02-19T02:22:59.456Z,97.80
2023-02-19T02:25:50.473Z,97.86
2023-02-19T02:28:51.055Z,97.47
2023-02-19T02:31:21.536Z,97.29
2023-02-19T02:34:14.430Z,97.49
2023-02-19T02:36:44.925Z,97.73
2023-02-19T02:39:14.352Z,97.68
2023-02-19T02:42:09.405Z,97.53
2023-02-19T02:44:37.006Z,97.88
2023-02-19T02:47:07.076Z,97.85
2023-02-19T02:49:54.561Z,98.08
2023-02-19T02:52:40.685Z,98.18
2023-02-19T02:55:10.944Z,97.73
2023-02-19T02:57:37.539Z,98.05
2023-02-19T03:00:04.441Z,97.97
2023-02-19T03:02:31.541Z,98.14
2023-02-19T03:05:22.730Z,97.92
2023-02-19T03:07:58.166Z,97.93
2023-02-19T03:10:48.808Z,97.94
2023-02-19T03:13:55.220Z,97.93
2023-02-19T03:16:48.358Z,97.85
2023-02-19T03:19:19.282Z,97.66
2023-02-19T03:22:10.129Z,98.04
2023-02-19T03:25:02.646Z,98.18
2023-02-19T03:27:31.967Z,97.93
2023-02-19T03:30:07.948Z,97.63
2023-02-19T03:32:42.284Z,97.04
2023-02-19T03:35:17.151Z,97.16
2023-02-19T03:37:53.089Z,96.34
2023-02-19T03:40:23.414Z,96.15
2023-02-19T03:43:10.669Z,96.27
2023-02-19T03:45:43.096Z,96.61
2023-02-19T03:48:29.627Z,96.45
2023-02-19T03:51:08.033Z,96.27
2023-02-19T03:53:38.261Z,96.24
2023-02-19T03:56:07.871Z,96.32
2023-02-19T03:58:53.108Z,96.14
2023-02-19T04:01:50.495Z,95.78
2023-02-19T04:04:24.690Z,95.61
2023-02-19T04:06:55.421Z,96.04
2023-02-19T04:09:24.023Z,96.06
2023-02-19T04:11:53.092Z,96.18
2023-02-19T04:14:22.401Z,96.58
2023-02-19T04:16:58.308Z,96.76
2023-02-19T04:19:26.513Z,96.77
2023-02-19T04:21:54.061Z,96.97
2023-02-19T04:24:36.163Z,96.94
2023-02-19T04:27:03.747Z,96.87
2023-02-19T04:29:30.380Z,96.84
2023-02-19T04:31:57.013Z,96.77
2023-02-19T04:34:23.598Z,96.77
2023-02-19T04:36:50.169Z,96.73
2023-02-19T04:39:16.798Z,96.96
2023-02-19T04:41:43.300Z,96.77
2023-02-19T04:44:09.947Z,97.18
2023-02-19T04:46:36.692Z,97.37
2023-02-19T04:49:03.761Z,97.38
2023-02-19T04:51:30.598Z,97.15
2023-02-19T04:53:57.291Z,96.79
2023-02-19T04:56:23.873Z,96.62
2023-02-19T04:58:50.708Z,96.91
2023-02-19T05:01:17.670Z,97.07
2023-02-19T05:03:44.731Z,96.67
2023-02-19T05:06:13.504Z,96.75
2023-02-19T05:08:41.319Z,97.42
2023-02-19T05:11:10.850Z,97.71
2023-02-19T05:13:38.455Z,98.03
2023-02-19T05:16:13.755Z,98.06
2023-02-19T05:18:40.934Z,97.85
2023-02-19T05:21:07.985Z,97.24
2023-02-19T05:23:35.264Z,97.05
2023-02-19T05:26:13.472Z,97.07
2023-02-19T05:28:40.084Z,97.46
2023-02-19T05:31:08.731Z,97.73
2023-02-19T05:33:35.750Z,97.93
2023-02-19T05:36:08.923Z,97.91
2023-02-19T05:38:36.681Z,97.94
2023-02-19T05:41:10.842Z,97.72
2023-02-19T05:43:41.752Z,97.38
2023-02-19T05:46:09.758Z,97.76
2023-02-19T05:48:36.845Z,97.48
2023-02-19T05:51:05.923Z,97.41
2023-02-19T05:53:32.844Z,98.04
2023-02-19T05:55:59.668Z,97.69
2023-02-19T05:58:27.251Z,97.66
2023-02-19T06:00:54.500Z,98.01
2023-02-19T06:03:21.863Z,98.20
2023-02-19T06:05:48.585Z,98.51
2023-02-19T06:08:16.234Z,98.51
2023-02-19T06:10:43.852Z,98.24
2023-02-19T06:13:11.030Z,98.48
2023-02-19T06:15:38.098Z,98.72
2023-02-19T06:18:04.921Z,98.93
2023-02-19T06:20:31.645Z,98.69
2023-02-19T06:22:58.278Z,98.62
2023-02-19T06:25:24.952Z,99.05
2023-02-19T06:27:51.661Z,99.09
2023-02-19T06:30:18.311Z,99.10
2023-02-19T06:32:44.989Z,99.17
2023-02-19T06:35:11.581Z,99.23
2023-02-19T06:37:38.247Z,99.07
2023-02-19T06:40:05.194Z,99.20
2023-02-19T06:42:33.030Z,99.38
2023-02-19T06:44:59.683Z,99.11
2023-02-19T06:47:26.284Z,98.52
2023-02-19T06:49:53.567Z,98.93
2023-02-19T06:52:20.246Z,99.05
2023-02-19T06:54:47.165Z,99.08
2023-02-19T06:57:13.712Z,98.37
2023-02-19T06:59:40.312Z,98.67
2023-02-19T07:02:07.480Z,98.34
2023-02-19T07:04:35.150Z,98.00
2023-02-19T07:07:02.054Z,98.19
2023-02-19T07:09:28.806Z,97.74
2023-02-19T07:11:55.515Z,98.04
2023-02-19T07:14:22.584Z,97.69
2023-02-19T07:16:49.494Z,97.11
2023-02-19T07:19:16.563Z,96.71
2023-02-19T07:21:43.365Z,96.16
2023-02-19T07:24:10.302Z,96.76
2023-02-19T07:26:36.917Z,96.71
2023-02-19T07:29:04.254Z,95.83
2023-02-19T07:31:30.899Z,95.48
2023-02-19T07:33:57.641Z,95.47
2023-02-19T07:36:25.427Z,94.92
2023-02-19T07:38:56.910Z,94.84
2023-02-19T07:41:27.187Z,95.19
2023-02-19T07:43:54.399Z,95.01
2023-02-19T07:46:22.262Z,94.90
2023-02-19T07:48:48.960Z,94.86
2023-02-19T07:51:19.505Z,94.43
2023-02-19T07:53:47.809Z,94.49
2023-02-19T07:56:15.328Z,94.03
2023-02-19T07:58:42.646Z,93.99
2023-02-19T08:01:19.625Z,93.62
2023-02-19T08:03:47.769Z,93.60
2023-02-19T08:06:15.391Z,93.53
2023-02-19T08:08:41.959Z,92.79
2023-02-19T08:11:28.467Z,93.47
2023-02-19T08:13:55.091Z,92.82
2023-02-19T08:16:33.507Z,92.73
2023-02-19T08:19:08.956Z,93.21
2023-02-19T08:21:35.631Z,93.13
2023-02-19T08:24:02.467Z,93.12
2023-02-19T08:26:29.415Z,93.18
2023-02-19T08:28:56.037Z,92.98
2023-02-19T08:31:22.952Z,93.29
2023-02-19T08:33:49.577Z,93.02
2023-02-19T08:36:16.210Z,91.27
2023-02-19T08:38:42.836Z,92.25
2023-02-19T08:41:14.074Z,90.44
2023-02-19T08:43:42.161Z,90.69
2023-02-19T08:46:10.266Z,89.46
2023-02-19T08:48:38.047Z,89.19
2023-02-19T08:51:11.173Z,88.88
2023-02-19T08:53:40.109Z,89.03
2023-02-19T08:56:08.410Z,89.05
2023-02-19T08:58:36.050Z,88.33
2023-02-19T09:01:03.114Z,88.48
2023-02-19T09:03:29.702Z,88.81
2023-02-19T09:05:56.317Z,87.75
2023-02-19T09:08:22.878Z,87.83
2023-02-19T09:11:04.413Z,86.66
2023-02-19T09:13:31.045Z,87.11
2023-02-19T09:15:58.169Z,86.60
2023-02-19T09:18:26.190Z,86.20
2023-02-19T09:20:52.875Z,86.79
2023-02-19T09:23:19.510Z,85.88
2023-02-19T09:25:46.297Z,86.04
2023-02-19T09:28:12.960Z,84.67
2023-02-19T09:30:39.677Z,84.36
2023-02-19T09:33:06.377Z,84.24
2023-02-19T09:35:32.950Z,83.32
2023-02-19T09:38:01.943Z,83.30
2023-02-19T09:40:30.455Z,83.47
2023-02-19T09:42:57.567Z,83.83
2023-02-19T09:45:26.049Z,82.88
2023-02-19T09:47:57.951Z,80.77
2023-02-19T09:50:36.201Z,78.05
2023-02-19T09:53:12.821Z,75.92
2023-02-19T09:55:42.396Z,73.44
2023-02-19T09:58:24.525Z,71.18
2023-02-19T10:00:52.682Z,70.26
2023-02-19T10:03:33.616Z,72.38
2023-02-19T10:06:20.379Z,69.65
2023-02-19T10:08:50.652Z,70.28
2023-02-19T10:11:18.022Z,68.85
2023-02-19T10:13:44.507Z,69.65
2023-02-19T10:16:19.399Z,71.75
2023-02-19T10:18:46.976Z,72.04
2023-02-19T10:21:20.100Z,73.38
2023-02-19T10:23:51.701Z,74.69
2023-02-19T10:26:19.158Z,75.48
2023-02-19T10:28:46.198Z,76.45
2023-02-19T10:31:21.343Z,72.15
2023-02-19T10:33:55.211Z,71.76
2023-02-19T10:36:39.435Z,73.37
2023-02-19T10:39:22.282Z,74.43
2023-02-19T10:41:50.984Z,73.83
2023-02-19T10:44:29.055Z,73.66
2023-02-19T10:46:58.726Z,72.80
2023-02-19T10:49:31.381Z,72.19
2023-02-19T10:52:03.076Z,72.52
2023-02-19T10:54:32.690Z,72.95
2023-02-19T10:57:30.351Z,74.41
2023-02-19T11:00:03.958Z,73.93
2023-02-19T11:02:31.712Z,74.13
2023-02-19T11:05:18.209Z,73.23
2023-02-19T11:07:49.056Z,72.37
2023-02-19T11:10:33.489Z,70.87
2023-02-19T11:13:02.954Z,71.88
2023-02-19T11:15:35.118Z,73.41
2023-02-19T11:18:20.211Z,74.00
2023-02-19T11:20:49.964Z,72.03
2023-02-19T11:23:22.369Z,72.52
2023-02-19T11:25:52.781Z,70.77
2023-02-19T11:28:26.707Z,70.09
2023-02-19T11:30:53.271Z,71.86
2023-02-19T11:33:27.382Z,71.31
2023-02-19T11:36:00.786Z,69.76
2023-02-19T11:38:27.422Z,68.25
2023-02-19T11:41:11.292Z,70.41
2023-02-19T11:44:00.085Z,68.83
2023-02-19T11:46:39.024Z,69.30
2023-02-19T11:49:25.365Z,69.85
2023-02-19T11:52:07.461Z,67.65
2023-02-19T11:54:43.122Z,65.96
2023-02-19T11:57:39.191Z,62.83
2023-02-19T12:00:36.112Z,58.06
2023-02-19T12:03:18.440Z,56.04
2023-02-19T12:05:59.474Z,57.96
2023-02-19T12:08:38.120Z,60.74
2023-02-19T12:11:26.916Z,63.29
2023-02-19T12:14:11.936Z,64.52
2023-02-19T12:17:11.822Z,65.46
2023-02-19T12:20:09.941Z,62.60
2023-02-19T12:22:45.821Z,60.16
2023-02-19T12:25:26.103Z,59.42
2023-02-19T12:28:26.134Z,57.40
2023-02-19T12:31:09.573Z,55.22
2023-02-19T12:33:53.462Z,55.88
2023-02-19T12:36:26.230Z,53.61
2023-02-19T12:39:20.998Z,53.49
2023-02-19T12:42:24.367Z,53.79
2023-02-19T12:44:57.686Z,53.83
2023-02-19T12:47:32.194Z,55.52
2023-02-19T12:50:13.448Z,53.46
2023-02-19T12:52:43.073Z,55.20
2023-02-19T12:55:24.832Z,55.68
2023-02-19T12:57:52.260Z,53.68
2023-02-19T13:00:33.212Z,53.47
2023-02-19T13:03:03.830Z,54.59
2023-02-19T13:05:49.876Z,55.12
2023-02-19T13:08:19.201Z,55.18
2023-02-19T13:10:59.378Z,54.96
2023-02-19T13:13:48.502Z,53.63
2023-02-19T13:16:19.158Z,55.56
2023-02-19T13:18:56.291Z,53.66
2023-02-19T13:21:44.517Z,54.25
2023-02-19T13:24:17.008Z,57.19
2023-02-19T13:26:46.588Z,54.45
2023-02-19T13:29:31.292Z,53.10
2023-02-19T13:32:28.272Z,55.08
2023-02-19T13:35:22.514Z,52.75
2023-02-19T13:37:50.120Z,55.32
2023-02-19T13:40:36.415Z,57.04
2023-02-19T13:43:08.605Z,57.89
2023-02-19T13:45:41.230Z,57.93
2023-02-19T13:48:30.107Z,56.31
2023-02-19T13:51:19.527Z,54.42
2023-02-19T13:53:48.103Z,55.63
2023-02-19T13:56:29.877Z,56.69
2023-02-19T13:59:18.405Z,57.79
2023-02-19T14:01:53.898Z,57.54
2023-02-19T14:04:22.058Z,58.54
2023-02-19T14:07:03.776Z,60.02
2023-02-19T14:09:36.919Z,60.94
2023-02-19T14:12:16.194Z,61.25
2023-02-19T14:14:51.479Z,61.79
2023-02-19T14:17:25.232Z,62.00
2023-02-19T14:19:59.459Z,61.39
2023-02-19T14:22:44.936Z,58.13
2023-02-19T14:25:35.590Z,55.94
2023-02-19T14:28:09.997Z,52.40
2023-02-19T14:30:55.200Z,52.86
2023-02-19T14:33:36.198Z,52.49
2023-02-19T14:36:09.325Z,50.65
2023-02-19T14:38:40.633Z,51.20
2023-02-19T14:41:12.377Z,50.98
2023-02-19T14:43:40.526Z,50.42
2023-02-19T14:46:29.761Z,49.66
2023-02-19T14:49:04.977Z,50.43
2023-02-19T14:51:39.823Z,50.87
2023-02-19T14:54:39.129Z,49.65
2023-02-19T14:57:11.806Z,51.17
2023-02-19T14:59:38.411Z,51.62
2023-02-19T15:02:17.249Z,49.30
2023-02-19T15:04:43.923Z,50.05
2023-02-19T15:07:17.341Z,50.27
2023-02-19T15:09:48.667Z,48.99
2023-02-19T15:12:24.121Z,49.31
2023-02-19T15:14:54.589Z,51.17
2023-02-19T15:17:27.887Z,52.14
2023-02-19T15:19:56.841Z,52.69
2023-02-19T15:22:25.965Z,55.84
2023-02-19T15:24:52.693Z,56.49
2023-02-19T15:27:22.633Z,55.74
2023-02-19T15:29:53.494Z,56.89
2023-02-19T15:32:28.516Z,58.48
2023-02-19T15:35:03.247Z,57.99
2023-02-19T15:37:33.012Z,58.08
2023-02-19T15:40:03.093Z,59.50
2023-02-19T15:42:32.214Z,59.81
2023-02-19T15:45:05.508Z,60.29
2023-02-19T15:48:10.747Z,59.47
2023-02-19T15:50:44.280Z,62.81
2023-02-19T15:53:21.598Z,62.72
2023-02-19T15:56:03.726Z,62.39
2023-02-19T15:58:38.079Z,63.72
2023-02-19T16:01:10.963Z,63.51
2023-02-19T16:03:38.084Z,63.52
2023-02-19T16:06:11.465Z,62.43
2023-02-19T16:08:39.591Z,63.59
2023-02-19T16:11:33.965Z,63.71
2023-02-19T16:14:29.129Z,64.16
2023-02-19T16:17:10.494Z,64.64
2023-02-19T16:19:52.205Z,63.92
2023-02-19T16:22:21.392Z,65.14
2023-02-19T16:24:55.204Z,66.29
2023-02-19T16:27:42.248Z,66.52
2023-02-19T16:30:17.868Z,67.19
2023-02-19T16:32:46.803Z,67.19
2023-02-19T16:35:42.406Z,69.47
2023-02-19T16:38:20.492Z,69.79
2023-02-19T16:40:54.105Z,70.58
2023-02-19T16:43:26.714Z,70.31
2023-02-19T16:45:53.347Z,71.54
2023-02-19T16:48:21.932Z,71.92
2023-02-19T16:50:48.845Z,72.24
2023-02-19T16:53:28.802Z,72.93
2023-02-19T16:55:55.502Z,73.83
2023-02-19T16:58:22.364Z,74.58
2023-02-19T17:00:49.015Z,75.68
2023-02-19T17:03:20.986Z,76.73
2023-02-19T17:05:47.838Z,77.27
2023-02-19T17:08:34.662Z,77.50
2023-02-19T17:11:03.224Z,77.94
2023-02-19T17:13:30.300Z,78.49
2023-02-19T17:15:57.591Z,78.57
2023-02-19T17:18:24.493Z,78.70
2023-02-19T17:21:14.865Z,79.14
2023-02-19T17:23:41.817Z,79.94
2023-02-19T17:26:18.662Z,80.35
2023-02-19T17:28:45.400Z,81.00
2023-02-19T17:31:13.725Z,81.08
2023-02-19T17:33:40.976Z,80.19
2023-02-19T17:36:08.181Z,80.99
2023-02-19T17:38:34.766Z,81.94
2023-02-19T17:41:01.329Z,81.70
2023-02-19T17:43:27.936Z,82.67
2023-02-19T17:45:54.597Z,82.10
2023-02-19T17:48:21.172Z,80.62
2023-02-19T17:50:50.238Z,81.41
2023-02-19T17:53:16.986Z,81.01
2023-02-19T17:55:43.822Z,81.54
2023-02-19T17:58:10.528Z,80.08
2023-02-19T18:00:37.253Z,80.36
2023-02-19T18:03:04.414Z,80.47
2023-02-19T18:05:31.386Z,80.26
2023-02-19T18:07:58.056Z,81.74
2023-02-19T18:10:25.258Z,81.63
2023-02-19T18:12:52.197Z,82.35
2023-02-19T18:15:24.395Z,81.84
2023-02-19T18:17:51.152Z,81.75
2023-02-19T18:20:20.718Z,81.73
2023-02-19T18:22:47.559Z,81.87
2023-02-19T18:25:16.466Z,82.28
2023-02-19T18:27:43.536Z,82.47
2023-02-19T18:30:10.939Z,83.33
2023-02-19T18:32:38.279Z,82.24
2023-02-19T18:35:05.542Z,83.00
2023-02-19T18:37:33.764Z,83.39
2023-02-19T18:40:01.523Z,84.15
2023-02-19T18:42:28.427Z,84.36
2023-02-19T18:44:55.986Z,84.55
2023-02-19T18:47:25.300Z,85.43
2023-02-19T18:49:54.521Z,85.56
2023-02-19T18:52:23.864Z,85.56
2023-02-19T18:54:51.913Z,82.96
2023-02-19T18:57:20.343Z,82.58
2023-02-19T18:59:46.943Z,82.92
2023-02-19T19:02:14.839Z,83.52
2023-02-19T19:04:41.728Z,82.28
2023-02-19T19:07:10.045Z,82.20
2023-02-19T19:09:37.330Z,82.20
2023-02-19T19:12:04.532Z,82.33
2023-02-19T19:14:31.311Z,81.90
2023-02-19T19:16:57.896Z,80.95
2023-02-19T19:19:24.621Z,81.33
2023-02-19T19:21:53.455Z,81.53
2023-02-19T19:24:21.596Z,82.15
2023-02-19T19:26:48.988Z,82.26
2023-02-19T19:29:17.821Z,82.22
2023-02-19T19:31:44.758Z,82.46
2023-02-19T19:34:12.096Z,82.72
2023-02-19T19:36:38.758Z,82.34
2023-02-19T19:39:05.790Z,82.69
2023-02-19T19:41:32.424Z,83.08
2023-02-19T19:44:02.464Z,83.07
2023-02-19T19:46:29.282Z,83.12
2023-02-19T19:48:56.053Z,83.90
2023-02-19T19:51:22.857Z,83.94
2023-02-19T19:53:50.073Z,83.55
2023-02-19T19:56:17.630Z,82.94
2023-02-19T19:58:44.229Z,82.82
2023-02-19T20:01:11.185Z,82.93
2023-02-19T20:03:39.548Z,83.83
2023-02-19T20:06:06.622Z,84.19
2023-02-19T20:08:33.204Z,84.33
2023-02-19T20:10:59.989Z,84.25
2023-02-19T20:13:28.709Z,84.45
2023-02-19T20:15:55.385Z,84.41
2023-02-19T20:18:24.801Z,84.88
2023-02-19T20:20:51.433Z,84.51
2023-02-19T20:23:18.071Z,85.16
2023-02-19T20:25:44.727Z,85.29
2023-02-19T20:28:11.475Z,86.08
2023-02-19T20:30:38.998Z,85.53
2023-02-19T20:33:05.661Z,84.95
2023-02-19T20:35:33.681Z,85.16
2023-02-19T20:38:00.308Z,85.16
2023-02-19T20:40:30.425Z,85.18
2023-02-19T20:42:57.453Z,85.00
2023-02-19T20:45:24.063Z,85.84
2023-02-19T20:47:50.688Z,85.98
2023-02-19T20:50:18.714Z,85.35
2023-02-19T20:53:00.568Z,85.66
2023-02-19T20:55:27.987Z,85.09
2023-02-19T20:57:54.570Z,85.54
2023-02-19T21:00:21.718Z,85.85
2023-02-19T21:02:48.321Z,85.82
2023-02-19T21:05:16.872Z,85.07
2023-02-19T21:07:44.011Z,86.07
2023-02-19T21:10:10.656Z,86.06
2023-02-19T21:12:37.298Z,85.23
2023-02-19T21:15:05.221Z,84.84
2023-02-19T21:17:31.994Z,85.39
2023-02-19T21:19:58.726Z,85.57
2023-02-19T21:22:25.473Z,85.89
2023-02-19T21:24:53.130Z,85.91
2023-02-19T21:27:20.494Z,86.83
2023-02-19T21:29:47.362Z,86.39
2023-02-19T21:32:14.199Z,86.22
2023-02-19T21:34:42.370Z,86.31
2023-02-19T21:37:09.048Z,86.14
2023-02-19T21:39:35.693Z,86.72
2023-02-19T21:42:02.564Z,86.67
2023-02-19T21:44:29.172Z,86.84
2023-02-19T21:46:56.024Z,87.03
2023-02-19T21:49:22.665Z,86.68
2023-02-19T21:51:50.232Z,86.59
2023-02-19T21:54:21.079Z,86.25
2023-02-19T21:56:48.744Z,86.66
2023-02-19T21:59:15.669Z,85.94
2023-02-19T22:01:43.338Z,86.12
2023-02-19T22:04:15.311Z,85.92
2023-02-19T22:06:42.483Z,85.96
2023-02-19T22:09:10.421Z,86.00
2023-02-19T22:11:37.297Z,85.85
2023-02-19T22:14:04.837Z,85.73
2023-02-19T22:16:31.724Z,86.24
2023-02-19T22:18:59.544Z,86.73
2023-02-19T22:21:32.336Z,87.43
2023-02-19T22:23:59.666Z,87.69
2023-02-19T22:26:35.488Z,88.02
2023-02-19T22:29:06.943Z,88.10
2023-02-19T22:31:35.125Z,88.00
2023-02-19T22:34:01.956Z,88.76
2023-02-19T22:36:33.163Z,89.04
2023-02-19T22:39:01.067Z,89.24
2023-02-19T22:41:27.818Z,89.48
2023-02-19T22:43:55.257Z,89.72
2023-02-19T22:46:23.904Z,90.06
2023-02-19T22:48:50.962Z,90.17
2023-02-19T22:51:20.476Z,90.35
2023-02-19T22:53:55.263Z,90.33
2023-02-19T22:56:25.217Z,89.91
2023-02-19T22:58:52.558Z,90.29
2023-02-19T23:01:19.922Z,90.48
2023-02-19T23:03:53.810Z,90.97
2023-02-19T23:06:26.730Z,90.37
2023-02-19T23:08:55.140Z,90.48
2023-02-19T23:11:24.025Z,90.63
2023-02-19T23:13:51.013Z,90.83
2023-02-19T23:16:18.058Z,90.41
2023-02-19T23:18:44.739Z,90.49
2023-02-19T23:21:12.136Z,91.09
2023-02-19T23:23:41.522Z,91.38
2023-02-19T23:26:08.967Z,91.17
2023-02-19T23:28:35.643Z,91.24
2023-02-19T23:31:02.198Z,91.48
2023-02-19T23:33:28.809Z,91.61
2023-02-19T23:35:55.384Z,92.00
2023-02-19T23:38:22.694Z,92.49
2023-02-19T23:40:49.370Z,92.21
2023-02-19T23:43:15.992Z,92.06
2023-02-19T23:45:42.618Z,92.02
2023-02-19T23:48:09.398Z,92.14
2023-02-19T23:50:36.021Z,92.47
2023-02-19T23:53:02.884Z,92.65
2023-02-19T23:55:29.523Z,93.09
2023-02-19T23:57:56.183Z,93.11
